sensor_id;sensor_type;location;lat;lon;timestamp;temperature;humidity
24412;DHT22;12544;46.760;15.942;2023-03-01T00:01:04;3.60;99.90
24412;DHT22;12544;46.760;15.942;2023-03-01T00:03:30;3.50;99.90
24412;DHT22;12544;46.760;15.942;2023-03-01T00:05:56;3.50;99.90
24412;DHT22;12544;46.760;15.942;2023-03-01T00:08:21;3.60;99.90
24412;DHT22;12544;46.760;15.942;2023-03-01T00:10:46;3.50;99.90
24412;DHT22;12544;46.760;15.942;2023-03-01T00:13:12;3.50;99.90
24412;DHT22;12544;46.760;15.942;2023-03-01T00:15:38;3.50;99.90
24412;DHT22;12544;46.760;15.942;2023-03-01T00:18:04;3.50;99.90
24412;DHT22;12544;46.760;15.942;2023-03-01T00:20:29;3.60;99.90
24412;DHT22;12544;46.760;15.942;2023-03-01T00:22:55;3.60;99.90
24412;DHT22;12544;46.760;15.942;2023-03-01T00:25:21;3.60;99.90
24412;DHT22;12544;46.760;15.942;2023-03-01T00:27:46;3.60;99.90
24412;DHT22;12544;46.760;15.942;2023-03-01T00:30:13;3.50;99.90
24412;DHT22;12544;46.760;15.942;2023-03-01T00:32:38;3.40;99.90
24412;DHT22;12544;46.760;15.942;2023-03-01T00:35:04;3.40;99.90
24412;DHT22;12544;46.760;15.942;2023-03-01T00:37:30;3.50;99.90
24412;DHT22;12544;46.760;15.942;2023-03-01T00:39:56;3.50;99.90
24412;DHT22;12544;46.760;15.942;2023-03-01T00:42:21;3.50;99.90
24412;DHT22;12544;46.760;15.942;2023-03-01T00:44:47;3.60;99.90
24412;DHT22;12544;46.760;15.942;2023-03-01T00:47:13;3.60;99.90
24412;DHT22;12544;46.760;15.942;2023-03-01T00:49:39;3.60;99.90
24412;DHT22;12544;46.760;15.942;2023-03-01T00:52:07;3.50;99.90
24412;DHT22;12544;46.760;15.942;2023-03-01T00:54:32;3.40;99.90
24412;DHT22;12544;46.760;15.942;2023-03-01T00:56:58;3.40;99.90
24412;DHT22;12544;46.760;15.942;2023-03-01T00:59:23;3.40;99.90
24412;DHT22;12544;46.760;15.942;2023-03-01T01:01:49;3.40;99.90
24412;DHT22;12544;46.760;15.942;2023-03-01T01:04:14;3.40;99.90
24412;DHT22;12544;46.760;15.942;2023-03-01T01:06:41;3.30;99.90
24412;DHT22;12544;46.760;15.942;2023-03-01T01:09:11;3.30;99.90
24412;DHT22;12544;46.760;15.942;2023-03-01T01:11:42;3.20;99.90
24412;DHT22;12544;46.760;15.942;2023-03-01T01:14:08;3.20;99.90
24412;DHT22;12544;46.760;15.942;2023-03-01T01:16:33;3.30;99.90
24412;DHT22;12544;46.760;15.942;2023-03-01T01:18:59;3.20;99.90
24412;DHT22;12544;46.760;15.942;2023-03-01T01:21:24;3.30;99.90
24412;DHT22;12544;46.760;15.942;2023-03-01T01:23:50;3.30;99.90
24412;DHT22;12544;46.760;15.942;2023-03-01T01:26:17;3.20;99.90
24412;DHT22;12544;46.760;15.942;2023-03-01T01:28:44;3.20;99.90
24412;DHT22;12544;46.760;15.942;2023-03-01T01:31:09;3.20;99.90
24412;DHT22;12544;46.760;15.942;2023-03-01T01:33:35;3.20;99.90
24412;DHT22;12544;46.760;15.942;2023-03-01T01:36:01;3.20;99.90
24412;DHT22;12544;46.760;15.942;2023-03-01T01:38:26;3.30;99.90
24412;DHT22;12544;46.760;15.942;2023-03-01T01:40:52;3.40;99.90
24412;DHT22;12544;46.760;15.942;2023-03-01T01:43:19;3.30;99.90
24412;DHT22;12544;46.760;15.942;2023-03-01T01:45:45;3.30;99.90
24412;DHT22;12544;46.760;15.942;2023-03-01T01:48:12;3.30;99.90
24412;DHT22;12544;46.760;15.942;2023-03-01T01:50:40;3.20;99.90
24412;DHT22;12544;46.760;15.942;2023-03-01T01:53:07;3.30;99.90
24412;DHT22;12544;46.760;15.942;2023-03-01T01:55:34;3.30;99.90
24412;DHT22;12544;46.760;15.942;2023-03-01T01:58:02;3.30;99.90
24412;DHT22;12544;46.760;15.942;2023-03-01T02:00:29;3.30;99.90
24412;DHT22;12544;46.760;15.942;2023-03-01T02:02:56;3.30;99.90
24412;DHT22;12544;46.760;15.942;2023-03-01T02:07:53;3.30;99.90
24412;DHT22;12544;46.760;15.942;2023-03-01T02:10:19;3.20;99.90
24412;DHT22;12544;46.760;15.942;2023-03-01T02:12:53;3.30;99.90
24412;DHT22;12544;46.760;15.942;2023-03-01T02:15:19;3.30;99.90
24412;DHT22;12544;46.760;15.942;2023-03-01T02:17:45;3.30;99.90
24412;DHT22;12544;46.760;15.942;2023-03-01T02:22:51;3.20;99.90
24412;DHT22;12544;46.760;15.942;2023-03-01T02:28:02;3.20;99.90
24412;DHT22;12544;46.760;15.942;2023-03-01T02:30:30;3.20;99.90
24412;DHT22;12544;46.760;15.942;2023-03-01T02:32:56;3.20;99.90
24412;DHT22;12544;46.760;15.942;2023-03-01T02:35:29;3.10;99.90
24412;DHT22;12544;46.760;15.942;2023-03-01T02:37:56;3.10;99.90
24412;DHT22;12544;46.760;15.942;2023-03-01T02:40:22;3.10;99.90
24412;DHT22;12544;46.760;15.942;2023-03-01T02:42:52;3.10;99.90
24412;DHT22;12544;46.760;15.942;2023-03-01T02:45:18;3.10;99.90
24412;DHT22;12544;46.760;15.942;2023-03-01T02:47:44;3.10;99.90
24412;DHT22;12544;46.760;15.942;2023-03-01T02:50:12;3.00;99.90
24412;DHT22;12544;46.760;15.942;2023-03-01T02:55:10;3.00;99.90
24412;DHT22;12544;46.760;15.942;2023-03-01T02:57:37;2.90;99.90
24412;DHT22;12544;46.760;15.942;2023-03-01T03:00:07;3.00;99.90
24412;DHT22;12544;46.760;15.942;2023-03-01T03:02:33;2.90;99.90
24412;DHT22;12544;46.760;15.942;2023-03-01T03:05:12;2.90;99.90
24412;DHT22;12544;46.760;15.942;2023-03-01T03:07:39;2.90;99.90
24412;DHT22;12544;46.760;15.942;2023-03-01T03:10:06;2.90;99.90
24412;DHT22;12544;46.760;15.942;2023-03-01T03:12:32;2.90;99.90
24412;DHT22;12544;46.760;15.942;2023-03-01T03:14:58;2.90;99.90
24412;DHT22;12544;46.760;15.942;2023-03-01T03:17:23;2.80;99.90
24412;DHT22;12544;46.760;15.942;2023-03-01T03:19:49;2.80;99.90
24412;DHT22;12544;46.760;15.942;2023-03-01T03:25:10;2.80;99.90
24412;DHT22;12544;46.760;15.942;2023-03-01T03:27:42;2.80;99.90
24412;DHT22;12544;46.760;15.942;2023-03-01T03:30:10;2.80;99.90
24412;DHT22;12544;46.760;15.942;2023-03-01T03:32:38;2.80;99.90
24412;DHT22;12544;46.760;15.942;2023-03-01T03:35:04;2.80;99.90
24412;DHT22;12544;46.760;15.942;2023-03-01T03:37:41;2.80;99.90
24412;DHT22;12544;46.760;15.942;2023-03-01T03:40:31;2.90;99.90
24412;DHT22;12544;46.760;15.942;2023-03-01T03:42:57;2.90;99.90
24412;DHT22;12544;46.760;15.942;2023-03-01T03:45:22;2.80;99.90
24412;DHT22;12544;46.760;15.942;2023-03-01T03:47:48;2.80;99.90
24412;DHT22;12544;46.760;15.942;2023-03-01T03:50:14;2.80;99.90
24412;DHT22;12544;46.760;15.942;2023-03-01T03:52:40;2.80;99.90
24412;DHT22;12544;46.760;15.942;2023-03-01T03:55:06;2.70;99.90
24412;DHT22;12544;46.760;15.942;2023-03-01T03:57:39;2.70;99.90
24412;DHT22;12544;46.760;15.942;2023-03-01T04:00:06;2.70;99.90
24412;DHT22;12544;46.760;15.942;2023-03-01T04:02:44;2.70;99.90
24412;DHT22;12544;46.760;15.942;2023-03-01T04:05:11;2.80;99.90
24412;DHT22;12544;46.760;15.942;2023-03-01T04:07:37;2.70;99.90
24412;DHT22;12544;46.760;15.942;2023-03-01T04:10:03;2.70;99.90
24412;DHT22;12544;46.760;15.942;2023-03-01T04:12:29;2.70;99.90
24412;DHT22;12544;46.760;15.942;2023-03-01T04:14:55;2.70;99.90
24412;DHT22;12544;46.760;15.942;2023-03-01T04:17:20;2.60;99.90
24412;DHT22;12544;46.760;15.942;2023-03-01T04:19:46;2.70;99.90
24412;DHT22;12544;46.760;15.942;2023-03-01T04:22:14;2.70;99.90
24412;DHT22;12544;46.760;15.942;2023-03-01T04:24:42;2.70;99.90
24412;DHT22;12544;46.760;15.942;2023-03-01T04:27:08;2.70;99.90
24412;DHT22;12544;46.760;15.942;2023-03-01T04:29:34;2.80;99.90
24412;DHT22;12544;46.760;15.942;2023-03-01T04:31:59;2.70;99.90
24412;DHT22;12544;46.760;15.942;2023-03-01T04:34:25;2.70;99.90
24412;DHT22;12544;46.760;15.942;2023-03-01T04:36:54;2.70;99.90
24412;DHT22;12544;46.760;15.942;2023-03-01T04:39:19;2.80;99.90
24412;DHT22;12544;46.760;15.942;2023-03-01T04:41:45;2.80;99.90
24412;DHT22;12544;46.760;15.942;2023-03-01T04:44:10;2.90;99.90
24412;DHT22;12544;46.760;15.942;2023-03-01T04:46:36;3.00;99.90
24412;DHT22;12544;46.760;15.942;2023-03-01T04:49:03;3.00;99.90
24412;DHT22;12544;46.760;15.942;2023-03-01T04:51:28;3.00;99.90
24412;DHT22;12544;46.760;15.942;2023-03-01T04:53:54;3.00;99.90
24412;DHT22;12544;46.760;15.942;2023-03-01T04:56:20;3.00;99.90
24412;DHT22;12544;46.760;15.942;2023-03-01T05:01:56;3.00;99.90
24412;DHT22;12544;46.760;15.942;2023-03-01T05:04:22;2.90;99.90
24412;DHT22;12544;46.760;15.942;2023-03-01T05:06:48;2.90;99.90
24412;DHT22;12544;46.760;15.942;2023-03-01T05:09:14;2.80;99.90
24412;DHT22;12544;46.760;15.942;2023-03-01T05:11:39;2.80;99.90
24412;DHT22;12544;46.760;15.942;2023-03-01T05:14:06;2.80;99.90
24412;DHT22;12544;46.760;15.942;2023-03-01T05:16:31;2.80;99.90
24412;DHT22;12544;46.760;15.942;2023-03-01T05:18:57;2.80;99.90
24412;DHT22;12544;46.760;15.942;2023-03-01T05:21:23;2.80;99.90
24412;DHT22;12544;46.760;15.942;2023-03-01T05:23:49;2.80;99.90
24412;DHT22;12544;46.760;15.942;2023-03-01T05:26:15;2.90;99.90
24412;DHT22;12544;46.760;15.942;2023-03-01T05:28:41;2.90;99.90
24412;DHT22;12544;46.760;15.942;2023-03-01T05:31:06;2.90;99.90
24412;DHT22;12544;46.760;15.942;2023-03-01T05:33:35;2.90;99.90
24412;DHT22;12544;46.760;15.942;2023-03-01T05:36:01;2.90;99.90
24412;DHT22;12544;46.760;15.942;2023-03-01T05:38:28;2.80;99.90
24412;DHT22;12544;46.760;15.942;2023-03-01T05:40:54;2.90;99.90
24412;DHT22;12544;46.760;15.942;2023-03-01T05:43:19;2.80;99.90
24412;DHT22;12544;46.760;15.942;2023-03-01T05:45:45;2.80;99.90
24412;DHT22;12544;46.760;15.942;2023-03-01T05:48:11;2.80;99.90
24412;DHT22;12544;46.760;15.942;2023-03-01T05:50:44;2.80;99.90
24412;DHT22;12544;46.760;15.942;2023-03-01T05:53:10;2.80;99.90
24412;DHT22;12544;46.760;15.942;2023-03-01T05:55:36;2.90;99.90
24412;DHT22;12544;46.760;15.942;2023-03-01T05:58:03;2.80;99.90
24412;DHT22;12544;46.760;15.942;2023-03-01T06:00:29;2.90;99.90
24412;DHT22;12544;46.760;15.942;2023-03-01T06:02:55;2.90;99.90
24412;DHT22;12544;46.760;15.942;2023-03-01T06:05:21;2.90;99.90
24412;DHT22;12544;46.760;15.942;2023-03-01T06:07:47;2.90;99.90
24412;DHT22;12544;46.760;15.942;2023-03-01T06:10:13;2.90;99.90
24412;DHT22;12544;46.760;15.942;2023-03-01T06:12:39;2.90;99.90
24412;DHT22;12544;46.760;15.942;2023-03-01T06:15:05;3.00;99.90
24412;DHT22;12544;46.760;15.942;2023-03-01T06:17:32;3.00;99.90
24412;DHT22;12544;46.760;15.942;2023-03-01T06:19:58;3.00;99.90
24412;DHT22;12544;46.760;15.942;2023-03-01T06:22:23;3.10;99.90
24412;DHT22;12544;46.760;15.942;2023-03-01T06:24:50;3.20;99.90
24412;DHT22;12544;46.760;15.942;2023-03-01T06:27:15;3.10;99.90
24412;DHT22;12544;46.760;15.942;2023-03-01T06:29:41;3.10;99.90
24412;DHT22;12544;46.760;15.942;2023-03-01T06:32:07;3.20;99.90
24412;DHT22;12544;46.760;15.942;2023-03-01T06:34:33;3.20;99.90
24412;DHT22;12544;46.760;15.942;2023-03-01T06:37:00;3.30;99.90
24412;DHT22;12544;46.760;15.942;2023-03-01T06:39:27;3.20;99.90
24412;DHT22;12544;46.760;15.942;2023-03-01T06:41:53;3.30;99.90
24412;DHT22;12544;46.760;15.942;2023-03-01T06:44:18;3.20;99.90
24412;DHT22;12544;46.760;15.942;2023-03-01T06:46:44;3.30;99.90
24412;DHT22;12544;46.760;15.942;2023-03-01T06:49:09;3.30;99.90
24412;DHT22;12544;46.760;15.942;2023-03-01T06:51:36;3.40;99.90
24412;DHT22;12544;46.760;15.942;2023-03-01T06:54:02;3.50;99.90
24412;DHT22;12544;46.760;15.942;2023-03-01T06:56:28;3.50;99.90
24412;DHT22;12544;46.760;15.942;2023-03-01T06:58:54;3.50;99.90
24412;DHT22;12544;46.760;15.942;2023-03-01T07:01:19;3.50;99.90
24412;DHT22;12544;46.760;15.942;2023-03-01T07:03:45;3.50;99.90
24412;DHT22;12544;46.760;15.942;2023-03-01T07:06:11;3.60;99.90
24412;DHT22;12544;46.760;15.942;2023-03-01T07:08:36;3.60;99.90
24412;DHT22;12544;46.760;15.942;2023-03-01T07:11:02;3.60;99.90
24412;DHT22;12544;46.760;15.942;2023-03-01T07:13:28;3.60;99.90
24412;DHT22;12544;46.760;15.942;2023-03-01T07:15:54;3.70;99.90
24412;DHT22;12544;46.760;15.942;2023-03-01T07:18:19;3.70;99.90
24412;DHT22;12544;46.760;15.942;2023-03-01T07:20:45;3.70;99.90
24412;DHT22;12544;46.760;15.942;2023-03-01T07:23:11;3.60;99.90
24412;DHT22;12544;46.760;15.942;2023-03-01T07:25:36;3.60;99.90
24412;DHT22;12544;46.760;15.942;2023-03-01T07:28:02;3.60;99.90
24412;DHT22;12544;46.760;15.942;2023-03-01T07:30:27;3.70;99.90
24412;DHT22;12544;46.760;15.942;2023-03-01T07:32:54;3.70;99.90
24412;DHT22;12544;46.760;15.942;2023-03-01T07:35:20;3.70;99.90
24412;DHT22;12544;46.760;15.942;2023-03-01T07:37:46;3.70;99.90
24412;DHT22;12544;46.760;15.942;2023-03-01T07:40:11;3.80;99.90
24412;DHT22;12544;46.760;15.942;2023-03-01T07:42:37;3.80;99.90
24412;DHT22;12544;46.760;15.942;2023-03-01T07:45:03;3.90;99.90
24412;DHT22;12544;46.760;15.942;2023-03-01T07:47:29;3.90;99.90
24412;DHT22;12544;46.760;15.942;2023-03-01T07:49:54;3.90;99.90
24412;DHT22;12544;46.760;15.942;2023-03-01T07:52:20;3.90;99.90
24412;DHT22;12544;46.760;15.942;2023-03-01T07:54:45;3.90;99.90
24412;DHT22;12544;46.760;15.942;2023-03-01T07:57:11;3.90;99.90
24412;DHT22;12544;46.760;15.942;2023-03-01T07:59:37;3.60;99.90
24412;DHT22;12544;46.760;15.942;2023-03-01T08:02:02;3.60;99.90
24412;DHT22;12544;46.760;15.942;2023-03-01T08:04:28;3.60;99.90
24412;DHT22;12544;46.760;15.942;2023-03-01T08:06:54;3.50;99.90
24412;DHT22;12544;46.760;15.942;2023-03-01T08:09:20;3.50;99.90
24412;DHT22;12544;46.760;15.942;2023-03-01T08:11:45;3.60;99.90
24412;DHT22;12544;46.760;15.942;2023-03-01T08:14:11;3.50;99.90
24412;DHT22;12544;46.760;15.942;2023-03-01T08:16:37;3.40;99.90
24412;DHT22;12544;46.760;15.942;2023-03-01T08:19:07;3.40;99.90
24412;DHT22;12544;46.760;15.942;2023-03-01T08:21:33;3.50;99.90
24412;DHT22;12544;46.760;15.942;2023-03-01T08:24:03;3.30;99.90
24412;DHT22;12544;46.760;15.942;2023-03-01T08:26:29;3.40;99.90
24412;DHT22;12544;46.760;15.942;2023-03-01T08:28:55;3.30;99.90
24412;DHT22;12544;46.760;15.942;2023-03-01T08:31:21;3.30;99.90
24412;DHT22;12544;46.760;15.942;2023-03-01T08:33:48;3.40;99.90
24412;DHT22;12544;46.760;15.942;2023-03-01T08:36:17;3.50;99.90
24412;DHT22;12544;46.760;15.942;2023-03-01T08:38:42;3.40;99.90
24412;DHT22;12544;46.760;15.942;2023-03-01T08:41:08;3.50;99.90
24412;DHT22;12544;46.760;15.942;2023-03-01T08:43:47;3.60;99.90
24412;DHT22;12544;46.760;15.942;2023-03-01T08:46:13;3.60;99.90
24412;DHT22;12544;46.760;15.942;2023-03-01T08:48:39;3.70;99.90
24412;DHT22;12544;46.760;15.942;2023-03-01T08:51:12;3.70;99.90
24412;DHT22;12544;46.760;15.942;2023-03-01T08:53:39;3.60;99.90
24412;DHT22;12544;46.760;15.942;2023-03-01T08:56:05;3.70;99.90
24412;DHT22;12544;46.760;15.942;2023-03-01T08:58:30;3.70;99.90
24412;DHT22;12544;46.760;15.942;2023-03-01T09:00:56;3.70;99.90
24412;DHT22;12544;46.760;15.942;2023-03-01T09:03:22;3.70;99.90
24412;DHT22;12544;46.760;15.942;2023-03-01T09:05:48;3.90;99.90
24412;DHT22;12544;46.760;15.942;2023-03-01T09:08:16;3.80;99.90
24412;DHT22;12544;46.760;15.942;2023-03-01T09:10:41;3.80;99.90
24412;DHT22;12544;46.760;15.942;2023-03-01T09:13:07;3.90;99.90
24412;DHT22;12544;46.760;15.942;2023-03-01T09:15:39;3.80;99.90
24412;DHT22;12544;46.760;15.942;2023-03-01T09:18:05;3.90;99.90
24412;DHT22;12544;46.760;15.942;2023-03-01T09:20:31;4.00;99.90
24412;DHT22;12544;46.760;15.942;2023-03-01T09:22:56;4.00;99.90
24412;DHT22;12544;46.760;15.942;2023-03-01T09:25:22;4.10;99.90
24412;DHT22;12544;46.760;15.942;2023-03-01T09:27:50;4.20;99.90
24412;DHT22;12544;46.760;15.942;2023-03-01T09:30:18;4.20;99.90
24412;DHT22;12544;46.760;15.942;2023-03-01T09:32:44;4.20;99.90
24412;DHT22;12544;46.760;15.942;2023-03-01T09:35:10;4.30;99.90
24412;DHT22;12544;46.760;15.942;2023-03-01T09:37:36;4.30;99.90
24412;DHT22;12544;46.760;15.942;2023-03-01T09:40:06;4.30;99.90
24412;DHT22;12544;46.760;15.942;2023-03-01T09:42:34;4.30;99.90
24412;DHT22;12544;46.760;15.942;2023-03-01T09:45:05;4.30;99.90
24412;DHT22;12544;46.760;15.942;2023-03-01T09:47:35;4.30;99.90
24412;DHT22;12544;46.760;15.942;2023-03-01T09:50:14;4.30;99.90
24412;DHT22;12544;46.760;15.942;2023-03-01T09:52:43;4.50;99.90
24412;DHT22;12544;46.760;15.942;2023-03-01T09:55:12;4.40;99.90
24412;DHT22;12544;46.760;15.942;2023-03-01T09:57:41;4.40;99.90
24412;DHT22;12544;46.760;15.942;2023-03-01T10:10:42;4.50;99.90
24412;DHT22;12544;46.760;15.942;2023-03-01T10:13:16;4.60;99.90
24412;DHT22;12544;46.760;15.942;2023-03-01T10:15:47;4.70;99.90
24412;DHT22;12544;46.760;15.942;2023-03-01T10:18:16;4.70;99.90
24412;DHT22;12544;46.760;15.942;2023-03-01T10:23:14;4.70;99.90
24412;DHT22;12544;46.760;15.942;2023-03-01T10:28:16;4.70;99.90
24412;DHT22;12544;46.760;15.942;2023-03-01T10:30:42;4.80;99.90
24412;DHT22;12544;46.760;15.942;2023-03-01T10:33:16;4.80;99.90
24412;DHT22;12544;46.760;15.942;2023-03-01T10:35:42;4.90;99.90
24412;DHT22;12544;46.760;15.942;2023-03-01T10:38:10;4.80;99.90
24412;DHT22;12544;46.760;15.942;2023-03-01T10:40:37;4.90;99.90
24412;DHT22;12544;46.760;15.942;2023-03-01T10:43:14;4.90;99.90
24412;DHT22;12544;46.760;15.942;2023-03-01T10:45:39;4.90;99.90
24412;DHT22;12544;46.760;15.942;2023-03-01T10:50:33;5.00;99.90
24412;DHT22;12544;46.760;15.942;2023-03-01T10:53:00;5.10;99.90
24412;DHT22;12544;46.760;15.942;2023-03-01T10:55:29;5.00;99.90
24412;DHT22;12544;46.760;15.942;2023-03-01T10:58:41;4.90;99.90
24412;DHT22;12544;46.760;15.942;2023-03-01T11:01:41;4.90;99.90
24412;DHT22;12544;46.760;15.942;2023-03-01T11:03:37;4.90;99.90
24412;DHT22;12544;46.760;15.942;2023-03-01T11:08:44;4.90;99.90
24412;DHT22;12544;46.760;15.942;2023-03-01T11:11:23;4.80;99.90
24412;DHT22;12544;46.760;15.942;2023-03-01T11:13:55;4.80;99.90
24412;DHT22;12544;46.760;15.942;2023-03-01T11:16:27;4.80;99.90
24412;DHT22;12544;46.760;15.942;2023-03-01T11:21:34;4.90;99.90
24412;DHT22;12544;46.760;15.942;2023-03-01T11:24:02;5.00;99.90
24412;DHT22;12544;46.760;15.942;2023-03-01T11:26:29;5.00;99.90
24412;DHT22;12544;46.760;15.942;2023-03-01T11:28:56;4.80;99.90
24412;DHT22;12544;46.760;15.942;2023-03-01T11:31:23;4.80;99.90
24412;DHT22;12544;46.760;15.942;2023-03-01T11:36:31;4.80;99.90
24412;DHT22;12544;46.760;15.942;2023-03-01T11:39:02;4.90;99.90
24412;DHT22;12544;46.760;15.942;2023-03-01T11:41:30;4.80;99.90
24412;DHT22;12544;46.760;15.942;2023-03-01T11:44:10;4.70;99.90
24412;DHT22;12544;46.760;15.942;2023-03-01T12:10:04;4.90;99.90
24412;DHT22;12544;46.760;15.942;2023-03-01T12:12:51;4.90;99.90
24412;DHT22;12544;46.760;15.942;2023-03-01T12:52:44;5.20;99.90
24412;DHT22;12544;46.760;15.942;2023-03-01T12:55:54;5.20;99.90
24412;DHT22;12544;46.760;15.942;2023-03-01T12:58:09;5.20;99.90
24412;DHT22;12544;46.760;15.942;2023-03-01T13:00:53;5.20;99.90
24412;DHT22;12544;46.760;15.942;2023-03-01T13:03:29;5.20;99.90
24412;DHT22;12544;46.760;15.942;2023-03-01T13:09:00;5.10;99.90
24412;DHT22;12544;46.760;15.942;2023-03-01T13:11:32;5.10;99.90
24412;DHT22;12544;46.760;15.942;2023-03-01T13:14:34;5.10;99.90
24412;DHT22;12544;46.760;15.942;2023-03-01T13:16:45;5.10;99.90
24412;DHT22;12544;46.760;15.942;2023-03-01T13:19:20;5.10;99.90
24412;DHT22;12544;46.760;15.942;2023-03-01T13:21:52;5.10;99.90
24412;DHT22;12544;46.760;15.942;2023-03-01T13:32:19;5.10;99.90
24412;DHT22;12544;46.760;15.942;2023-03-01T13:34:46;5.10;99.90
24412;DHT22;12544;46.760;15.942;2023-03-01T13:37:19;5.20;99.90
24412;DHT22;12544;46.760;15.942;2023-03-01T13:40:02;5.20;99.90
24412;DHT22;12544;46.760;15.942;2023-03-01T13:42:35;5.30;99.90
24412;DHT22;12544;46.760;15.942;2023-03-01T13:45:05;5.30;99.90
24412;DHT22;12544;46.760;15.942;2023-03-01T13:47:31;5.30;99.90
24412;DHT22;12544;46.760;15.942;2023-03-01T13:49:58;5.40;99.90
24412;DHT22;12544;46.760;15.942;2023-03-01T14:03:01;5.40;99.90
24412;DHT22;12544;46.760;15.942;2023-03-01T14:05:26;5.50;99.90
24412;DHT22;12544;46.760;15.942;2023-03-01T14:07:52;5.40;99.90
24412;DHT22;12544;46.760;15.942;2023-03-01T14:10:17;5.50;99.90
24412;DHT22;12544;46.760;15.942;2023-03-01T14:13:05;5.50;99.90
24412;DHT22;12544;46.760;15.942;2023-03-01T14:15:39;5.50;99.90
24412;DHT22;12544;46.760;15.942;2023-03-01T14:18:12;5.40;99.90
24412;DHT22;12544;46.760;15.942;2023-03-01T14:20:43;5.50;99.90
24412;DHT22;12544;46.760;15.942;2023-03-01T14:23:22;5.60;99.90
24412;DHT22;12544;46.760;15.942;2023-03-01T14:25:49;5.50;99.90
24412;DHT22;12544;46.760;15.942;2023-03-01T14:28:20;5.50;99.90
24412;DHT22;12544;46.760;15.942;2023-03-01T14:30:50;5.50;99.90
24412;DHT22;12544;46.760;15.942;2023-03-01T14:33:28;5.50;99.90
24412;DHT22;12544;46.760;15.942;2023-03-01T14:38:20;5.60;99.90
24412;DHT22;12544;46.760;15.942;2023-03-01T14:40:46;5.60;99.90
24412;DHT22;12544;46.760;15.942;2023-03-01T14:43:15;5.60;99.90
24412;DHT22;12544;46.760;15.942;2023-03-01T14:45:46;5.60;99.90
24412;DHT22;12544;46.760;15.942;2023-03-01T14:48:12;5.60;99.90
24412;DHT22;12544;46.760;15.942;2023-03-01T14:50:43;5.50;99.90
24412;DHT22;12544;46.760;15.942;2023-03-01T14:53:28;5.50;99.90
24412;DHT22;12544;46.760;15.942;2023-03-01T14:55:55;5.60;99.90
24412;DHT22;12544;46.760;15.942;2023-03-01T14:58:23;5.60;99.90
24412;DHT22;12544;46.760;15.942;2023-03-01T15:00:55;5.60;99.90
24412;DHT22;12544;46.760;15.942;2023-03-01T15:05:53;5.70;99.90
24412;DHT22;12544;46.760;15.942;2023-03-01T15:08:20;5.70;99.90
24412;DHT22;12544;46.760;15.942;2023-03-01T15:10:59;5.70;99.90
24412;DHT22;12544;46.760;15.942;2023-03-01T15:13:26;5.70;99.90
24412;DHT22;12544;46.760;15.942;2023-03-01T15:15:52;5.80;99.90
24412;DHT22;12544;46.760;15.942;2023-03-01T15:18:22;5.70;99.90
24412;DHT22;12544;46.760;15.942;2023-03-01T15:20:51;5.80;99.90
24412;DHT22;12544;46.760;15.942;2023-03-01T15:23:26;5.70;99.90
24412;DHT22;12544;46.760;15.942;2023-03-01T15:28:27;5.60;99.90
24412;DHT22;12544;46.760;15.942;2023-03-01T15:30:54;5.70;99.90
24412;DHT22;12544;46.760;15.942;2023-03-01T15:33:36;5.60;99.90
24412;DHT22;12544;46.760;15.942;2023-03-01T15:36:03;5.60;99.90
24412;DHT22;12544;46.760;15.942;2023-03-01T15:38:56;5.60;99.90
24412;DHT22;12544;46.760;15.942;2023-03-01T15:43:50;5.40;99.90
24412;DHT22;12544;46.760;15.942;2023-03-01T15:48:45;5.40;99.90
24412;DHT22;12544;46.760;15.942;2023-03-01T15:51:11;5.40;99.90
24412;DHT22;12544;46.760;15.942;2023-03-01T15:53:37;5.40;99.90
24412;DHT22;12544;46.760;15.942;2023-03-01T15:56:05;5.40;99.90
24412;DHT22;12544;46.760;15.942;2023-03-01T15:58:32;5.50;99.90
24412;DHT22;12544;46.760;15.942;2023-03-01T16:00:58;5.50;99.90
24412;DHT22;12544;46.760;15.942;2023-03-01T16:03:24;5.40;99.90
24412;DHT22;12544;46.760;15.942;2023-03-01T16:05:50;5.40;99.90
24412;DHT22;12544;46.760;15.942;2023-03-01T16:08:16;5.40;99.90
24412;DHT22;12544;46.760;15.942;2023-03-01T16:10:41;5.40;99.90
24412;DHT22;12544;46.760;15.942;2023-03-01T16:13:13;5.30;99.90
24412;DHT22;12544;46.760;15.942;2023-03-01T16:15:38;5.20;99.90
24412;DHT22;12544;46.760;15.942;2023-03-01T16:18:11;5.20;99.90
24412;DHT22;12544;46.760;15.942;2023-03-01T16:20:37;5.00;99.90
24412;DHT22;12544;46.760;15.942;2023-03-01T16:23:03;4.90;99.90
24412;DHT22;12544;46.760;15.942;2023-03-01T16:25:30;4.90;99.90
24412;DHT22;12544;46.760;15.942;2023-03-01T16:27:56;4.80;99.90
24412;DHT22;12544;46.760;15.942;2023-03-01T16:30:45;4.60;99.90
24412;DHT22;12544;46.760;15.942;2023-03-01T16:33:11;4.40;99.90
24412;DHT22;12544;46.760;15.942;2023-03-01T16:35:39;4.40;99.90
24412;DHT22;12544;46.760;15.942;2023-03-01T16:38:04;4.50;99.90
24412;DHT22;12544;46.760;15.942;2023-03-01T16:40:30;4.50;99.90
24412;DHT22;12544;46.760;15.942;2023-03-01T16:45:34;4.70;99.90
24412;DHT22;12544;46.760;15.942;2023-03-01T16:48:01;4.80;99.90
24412;DHT22;12544;46.760;15.942;2023-03-01T16:50:26;4.80;99.90
24412;DHT22;12544;46.760;15.942;2023-03-01T16:52:52;5.00;99.90
24412;DHT22;12544;46.760;15.942;2023-03-01T16:55:17;5.00;99.90
24412;DHT22;12544;46.760;15.942;2023-03-01T16:57:43;5.00;99.90
24412;DHT22;12544;46.760;15.942;2023-03-01T17:00:10;5.00;99.90
24412;DHT22;12544;46.760;15.942;2023-03-01T17:02:38;5.00;99.90
24412;DHT22;12544;46.760;15.942;2023-03-01T17:05:04;5.10;99.90
24412;DHT22;12544;46.760;15.942;2023-03-01T17:07:30;5.10;99.90
24412;DHT22;12544;46.760;15.942;2023-03-01T17:10:00;4.90;99.90
24412;DHT22;12544;46.760;15.942;2023-03-01T17:12:26;4.90;99.90
24412;DHT22;12544;46.760;15.942;2023-03-01T17:14:52;4.80;99.90
24412;DHT22;12544;46.760;15.942;2023-03-01T17:17:18;4.80;99.90
24412;DHT22;12544;46.760;15.942;2023-03-01T17:19:43;4.90;99.90
24412;DHT22;12544;46.760;15.942;2023-03-01T17:22:09;4.80;99.90
24412;DHT22;12544;46.760;15.942;2023-03-01T17:24:36;4.80;99.90
24412;DHT22;12544;46.760;15.942;2023-03-01T17:27:02;4.90;99.90
24412;DHT22;12544;46.760;15.942;2023-03-01T17:29:27;4.90;99.90
24412;DHT22;12544;46.760;15.942;2023-03-01T17:31:53;5.00;99.90
24412;DHT22;12544;46.760;15.942;2023-03-01T17:34:21;5.00;99.90
24412;DHT22;12544;46.760;15.942;2023-03-01T17:36:47;5.00;99.90
24412;DHT22;12544;46.760;15.942;2023-03-01T17:39:14;5.00;99.90
24412;DHT22;12544;46.760;15.942;2023-03-01T17:41:40;5.10;99.90
24412;DHT22;12544;46.760;15.942;2023-03-01T17:44:06;5.10;99.90
24412;DHT22;12544;46.760;15.942;2023-03-01T17:49:32;4.90;99.90
24412;DHT22;12544;46.760;15.942;2023-03-01T17:51:57;4.80;99.90
24412;DHT22;12544;46.760;15.942;2023-03-01T17:54:23;4.90;99.90
24412;DHT22;12544;46.760;15.942;2023-03-01T17:56:48;5.00;99.90